sensor_id;sensor_type;location;lat;lon;timestamp;P1;durP1;ratioP1;P2;durP2;ratioP2
16862;SDS011;52193;48.216;-1.698;2024-02-26T00:02:22;79.30;;;73.22;;
16862;SDS011;52193;48.216;-1.698;2024-02-26T00:04:51;74.28;;;68.47;;
16862;SDS011;52193;48.216;-1.698;2024-02-26T00:07:17;76.32;;;70.32;;
16862;SDS011;52193;48.216;-1.698;2024-02-26T00:09:44;78.05;;;72.13;;
16862;SDS011;52193;48.216;-1.698;2024-02-26T00:12:11;74.15;;;68.40;;
16862;SDS011;52193;48.216;-1.698;2024-02-26T00:14:38;76.05;;;69.97;;
16862;SDS011;52193;48.216;-1.698;2024-02-26T00:17:06;75.68;;;69.78;;
16862;SDS011;52193;48.216;-1.698;2024-02-26T00:19:34;72.55;;;66.85;;
16862;SDS011;52193;48.216;-1.698;2024-02-26T00:22:03;72.00;;;66.20;;
16862;SDS011;52193;48.216;-1.698;2024-02-26T00:24:29;75.38;;;69.47;;
16862;SDS011;52193;48.216;-1.698;2024-02-26T00:26:56;74.45;;;68.47;;
16862;SDS011;52193;48.216;-1.698;2024-02-26T00:29:23;73.72;;;67.75;;
16862;SDS011;52193;48.216;-1.698;2024-02-26T00:31:50;70.13;;;64.22;;
16862;SDS011;52193;48.216;-1.698;2024-02-26T00:34:17;68.22;;;62.65;;
16862;SDS011;52193;48.216;-1.698;2024-02-26T00:36:44;70.13;;;64.50;;
16862;SDS011;52193;48.216;-1.698;2024-02-26T00:39:12;71.00;;;65.20;;
16862;SDS011;52193;48.216;-1.698;2024-02-26T00:41:40;70.60;;;64.75;;
16862;SDS011;52193;48.216;-1.698;2024-02-26T00:44:07;73.95;;;68.05;;
16862;SDS011;52193;48.216;-1.698;2024-02-26T00:46:34;72.45;;;66.55;;
16862;SDS011;52193;48.216;-1.698;2024-02-26T00:49:01;71.90;;;65.80;;
16862;SDS011;52193;48.216;-1.698;2024-02-26T00:51:27;68.97;;;63.28;;
16862;SDS011;52193;48.216;-1.698;2024-02-26T00:53:54;69.05;;;63.35;;
16862;SDS011;52193;48.216;-1.698;2024-02-26T00:56:23;71.45;;;65.82;;
16862;SDS011;52193;48.216;-1.698;2024-02-26T00:58:49;72.40;;;66.50;;
16862;SDS011;52193;48.216;-1.698;2024-02-26T01:01:17;67.88;;;62.28;;
16862;SDS011;52193;48.216;-1.698;2024-02-26T01:03:45;67.60;;;62.00;;
16862;SDS011;52193;48.216;-1.698;2024-02-26T01:06:11;70.93;;;65.20;;
16862;SDS011;52193;48.216;-1.698;2024-02-26T01:08:38;68.07;;;62.45;;
16862;SDS011;52193;48.216;-1.698;2024-02-26T01:11:05;67.68;;;62.17;;
16862;SDS011;52193;48.216;-1.698;2024-02-26T01:13:34;69.50;;;63.88;;
16862;SDS011;52193;48.216;-1.698;2024-02-26T01:16:01;69.40;;;63.75;;
16862;SDS011;52193;48.216;-1.698;2024-02-26T01:18:28;65.22;;;59.75;;
16862;SDS011;52193;48.216;-1.698;2024-02-26T01:20:55;69.72;;;64.07;;
16862;SDS011;52193;48.216;-1.698;2024-02-26T01:23:21;65.50;;;60.08;;
16862;SDS011;52193;48.216;-1.698;2024-02-26T01:25:48;69.38;;;63.58;;
16862;SDS011;52193;48.216;-1.698;2024-02-26T01:28:16;68.80;;;63.13;;
16862;SDS011;52193;48.216;-1.698;2024-02-26T01:30:44;70.18;;;64.30;;
16862;SDS011;52193;48.216;-1.698;2024-02-26T01:33:11;71.53;;;65.82;;
16862;SDS011;52193;48.216;-1.698;2024-02-26T01:35:38;74.38;;;68.18;;
16862;SDS011;52193;48.216;-1.698;2024-02-26T01:38:04;73.95;;;67.95;;
16862;SDS011;52193;48.216;-1.698;2024-02-26T01:40:32;72.18;;;66.55;;
16862;SDS011;52193;48.216;-1.698;2024-02-26T01:42:59;74.13;;;68.10;;
16862;SDS011;52193;48.216;-1.698;2024-02-26T01:45:26;74.65;;;68.78;;
16862;SDS011;52193;48.216;-1.698;2024-02-26T01:47:54;79.00;;;72.90;;
16862;SDS011;52193;48.216;-1.698;2024-02-26T01:50:22;75.70;;;69.90;;
16862;SDS011;52193;48.216;-1.698;2024-02-26T01:52:50;73.45;;;67.68;;
16862;SDS011;52193;48.216;-1.698;2024-02-26T01:55:18;74.30;;;68.40;;
16862;SDS011;52193;48.216;-1.698;2024-02-26T01:57:48;76.68;;;70.75;;
16862;SDS011;52193;48.216;-1.698;2024-02-26T02:00:17;75.32;;;69.63;;
16862;SDS011;52193;48.216;-1.698;2024-02-26T02:02:45;73.65;;;67.82;;
16862;SDS011;52193;48.216;-1.698;2024-02-26T02:05:15;72.82;;;67.13;;
16862;SDS011;52193;48.216;-1.698;2024-02-26T02:07:43;73.72;;;68.10;;
16862;SDS011;52193;48.216;-1.698;2024-02-26T02:10:10;75.93;;;70.18;;
16862;SDS011;52193;48.216;-1.698;2024-02-26T02:12:37;75.50;;;69.57;;
16862;SDS011;52193;48.216;-1.698;2024-02-26T02:15:05;76.43;;;70.78;;
16862;SDS011;52193;48.216;-1.698;2024-02-26T02:17:33;82.72;;;76.30;;
16862;SDS011;52193;48.216;-1.698;2024-02-26T02:20:00;77.38;;;71.47;;
16862;SDS011;52193;48.216;-1.698;2024-02-26T02:22:29;76.28;;;70.35;;
16862;SDS011;52193;48.216;-1.698;2024-02-26T02:24:57;77.05;;;71.15;;
16862;SDS011;52193;48.216;-1.698;2024-02-26T02:27:25;77.60;;;71.50;;
16862;SDS011;52193;48.216;-1.698;2024-02-26T02:29:52;77.38;;;71.38;;
16862;SDS011;52193;48.216;-1.698;2024-02-26T02:32:19;80.55;;;74.35;;
16862;SDS011;52193;48.216;-1.698;2024-02-26T02:34:47;74.65;;;68.82;;
16862;SDS011;52193;48.216;-1.698;2024-02-26T02:37:14;74.30;;;68.35;;
16862;SDS011;52193;48.216;-1.698;2024-02-26T02:39:42;76.32;;;70.53;;
16862;SDS011;52193;48.216;-1.698;2024-02-26T02:42:10;78.93;;;72.85;;
16862;SDS011;52193;48.216;-1.698;2024-02-26T02:44:37;77.47;;;71.68;;
16862;SDS011;52193;48.216;-1.698;2024-02-26T02:47:04;80.93;;;74.88;;
16862;SDS011;52193;48.216;-1.698;2024-02-26T02:49:30;78.32;;;72.32;;
16862;SDS011;52193;48.216;-1.698;2024-02-26T02:51:58;79.72;;;73.75;;
16862;SDS011;52193;48.216;-1.698;2024-02-26T02:54:23;76.63;;;70.75;;
16862;SDS011;52193;48.216;-1.698;2024-02-26T02:56:52;78.57;;;72.55;;
16862;SDS011;52193;48.216;-1.698;2024-02-26T02:59:19;77.15;;;71.38;;
16862;SDS011;52193;48.216;-1.698;2024-02-26T03:01:46;78.10;;;72.07;;
16862;SDS011;52193;48.216;-1.698;2024-02-26T03:04:13;78.45;;;72.35;;
16862;SDS011;52193;48.216;-1.698;2024-02-26T03:06:40;77.32;;;71.45;;
16862;SDS011;52193;48.216;-1.698;2024-02-26T03:09:07;78.80;;;72.90;;
16862;SDS011;52193;48.216;-1.698;2024-02-26T03:11:33;80.05;;;73.90;;
16862;SDS011;52193;48.216;-1.698;2024-02-26T03:14:02;78.00;;;72.18;;
16862;SDS011;52193;48.216;-1.698;2024-02-26T03:16:30;77.82;;;71.80;;
16862;SDS011;52193;48.216;-1.698;2024-02-26T03:18:56;78.95;;;72.95;;
16862;SDS011;52193;48.216;-1.698;2024-02-26T03:21:23;80.80;;;74.85;;
16862;SDS011;52193;48.216;-1.698;2024-02-26T03:23:51;81.28;;;75.38;;
16862;SDS011;52193;48.216;-1.698;2024-02-26T03:26:18;81.32;;;75.13;;
16862;SDS011;52193;48.216;-1.698;2024-02-26T03:28:45;79.22;;;73.30;;
16862;SDS011;52193;48.216;-1.698;2024-02-26T03:31:13;80.13;;;74.13;;
16862;SDS011;52193;48.216;-1.698;2024-02-26T03:33:40;78.65;;;72.65;;
16862;SDS011;52193;48.216;-1.698;2024-02-26T03:36:07;80.60;;;74.45;;
16862;SDS011;52193;48.216;-1.698;2024-02-26T03:38:34;80.13;;;74.13;;
16862;SDS011;52193;48.216;-1.698;2024-02-26T03:41:00;78.63;;;72.72;;
16862;SDS011;52193;48.216;-1.698;2024-02-26T03:43:27;84.38;;;78.18;;
16862;SDS011;52193;48.216;-1.698;2024-02-26T03:45:54;80.50;;;74.55;;
16862;SDS011;52193;48.216;-1.698;2024-02-26T03:48:22;88.00;;;81.65;;
16862;SDS011;52193;48.216;-1.698;2024-02-26T03:50:49;87.18;;;80.97;;
16862;SDS011;52193;48.216;-1.698;2024-02-26T03:53:16;84.40;;;78.43;;
16862;SDS011;52193;48.216;-1.698;2024-02-26T03:55:43;83.30;;;77.40;;
16862;SDS011;52193;48.216;-1.698;2024-02-26T03:58:12;82.07;;;76.25;;
16862;SDS011;52193;48.216;-1.698;2024-02-26T04:00:39;78.65;;;72.95;;
16862;SDS011;52193;48.216;-1.698;2024-02-26T04:03:06;77.93;;;72.00;;
16862;SDS011;52193;48.216;-1.698;2024-02-26T04:05:34;78.18;;;72.47;;
16862;SDS011;52193;48.216;-1.698;2024-02-26T04:08:01;75.80;;;70.22;;
16862;SDS011;52193;48.216;-1.698;2024-02-26T04:10:29;76.65;;;71.05;;
16862;SDS011;52193;48.216;-1.698;2024-02-26T04:12:55;75.57;;;69.97;;
16862;SDS011;52193;48.216;-1.698;2024-02-26T04:15:22;74.72;;;69.13;;
16862;SDS011;52193;48.216;-1.698;2024-02-26T04:17:49;76.57;;;70.88;;
16862;SDS011;52193;48.216;-1.698;2024-02-26T04:20:16;76.10;;;70.45;;
16862;SDS011;52193;48.216;-1.698;2024-02-26T04:22:44;74.65;;;69.13;;
16862;SDS011;52193;48.216;-1.698;2024-02-26T04:25:11;74.00;;;68.30;;
16862;SDS011;52193;48.216;-1.698;2024-02-26T04:27:38;74.07;;;68.47;;
16862;SDS011;52193;48.216;-1.698;2024-02-26T04:30:06;74.60;;;69.00;;
16862;SDS011;52193;48.216;-1.698;2024-02-26T04:32:33;71.03;;;65.53;;
16862;SDS011;52193;48.216;-1.698;2024-02-26T04:35:00;72.45;;;67.13;;
16862;SDS011;52193;48.216;-1.698;2024-02-26T04:37:28;73.57;;;68.07;;
16862;SDS011;52193;48.216;-1.698;2024-02-26T04:39:58;72.53;;;67.03;;
16862;SDS011;52193;48.216;-1.698;2024-02-26T04:42:26;70.78;;;65.40;;
16862;SDS011;52193;48.216;-1.698;2024-02-26T04:44:54;70.82;;;65.53;;
16862;SDS011;52193;48.216;-1.698;2024-02-26T04:47:21;70.53;;;65.15;;
16862;SDS011;52193;48.216;-1.698;2024-02-26T04:49:48;69.05;;;63.65;;
16862;SDS011;52193;48.216;-1.698;2024-02-26T04:52:15;71.63;;;66.32;;
16862;SDS011;52193;48.216;-1.698;2024-02-26T04:54:42;68.03;;;62.83;;
16862;SDS011;52193;48.216;-1.698;2024-02-26T04:57:11;70.00;;;64.68;;
16862;SDS011;52193;48.216;-1.698;2024-02-26T04:59:37;70.47;;;65.20;;
16862;SDS011;52193;48.216;-1.698;2024-02-26T05:02:05;65.35;;;60.25;;
16862;SDS011;52193;48.216;-1.698;2024-02-26T05:04:32;62.70;;;57.70;;
16862;SDS011;52193;48.216;-1.698;2024-02-26T05:06:59;63.58;;;58.67;;
16862;SDS011;52193;48.216;-1.698;2024-02-26T05:09:26;61.78;;;56.90;;
16862;SDS011;52193;48.216;-1.698;2024-02-26T05:11:53;63.80;;;58.80;;
16862;SDS011;52193;48.216;-1.698;2024-02-26T05:14:21;63.90;;;58.80;;
16862;SDS011;52193;48.216;-1.698;2024-02-26T05:16:48;63.90;;;58.80;;
16862;SDS011;52193;48.216;-1.698;2024-02-26T05:19:15;64.15;;;59.05;;
16862;SDS011;52193;48.216;-1.698;2024-02-26T05:21:42;63.80;;;58.80;;
16862;SDS011;52193;48.216;-1.698;2024-02-26T05:24:09;62.60;;;57.70;;
16862;SDS011;52193;48.216;-1.698;2024-02-26T05:26:36;67.60;;;62.50;;
16862;SDS011;52193;48.216;-1.698;2024-02-26T05:29:03;65.32;;;60.22;;
16862;SDS011;52193;48.216;-1.698;2024-02-26T05:31:32;66.05;;;60.95;;
16862;SDS011;52193;48.216;-1.698;2024-02-26T05:33:58;63.92;;;58.97;;
16862;SDS011;52193;48.216;-1.698;2024-02-26T05:36:25;68.95;;;63.85;;
16862;SDS011;52193;48.216;-1.698;2024-02-26T05:38:53;69.55;;;64.40;;
16862;SDS011;52193;48.216;-1.698;2024-02-26T05:41:20;63.90;;;58.90;;
16862;SDS011;52193;48.216;-1.698;2024-02-26T05:43:51;62.70;;;57.88;;
16862;SDS011;52193;48.216;-1.698;2024-02-26T05:46:18;61.22;;;56.58;;
16862;SDS011;52193;48.216;-1.698;2024-02-26T05:48:46;61.40;;;56.63;;
16862;SDS011;52193;48.216;-1.698;2024-02-26T05:51:14;62.17;;;57.38;;
16862;SDS011;52193;48.216;-1.698;2024-02-26T05:53:40;60.75;;;56.05;;
16862;SDS011;52193;48.216;-1.698;2024-02-26T05:56:07;63.25;;;58.35;;
16862;SDS011;52193;48.216;-1.698;2024-02-26T05:58:34;61.63;;;56.92;;
16862;SDS011;52193;48.216;-1.698;2024-02-26T06:01:01;62.47;;;57.75;;
16862;SDS011;52193;48.216;-1.698;2024-02-26T06:03:29;60.17;;;55.47;;
16862;SDS011;52193;48.216;-1.698;2024-02-26T06:05:57;55.60;;;51.10;;
16862;SDS011;52193;48.216;-1.698;2024-02-26T06:08:24;56.53;;;52.13;;
16862;SDS011;52193;48.216;-1.698;2024-02-26T06:10:50;57.92;;;53.42;;
16862;SDS011;52193;48.216;-1.698;2024-02-26T06:13:17;56.67;;;52.17;;
16862;SDS011;52193;48.216;-1.698;2024-02-26T06:15:44;55.83;;;51.63;;
16862;SDS011;52193;48.216;-1.698;2024-02-26T06:18:11;55.67;;;51.28;;
16862;SDS011;52193;48.216;-1.698;2024-02-26T06:20:38;54.47;;;50.17;;
16862;SDS011;52193;48.216;-1.698;2024-02-26T06:23:06;53.40;;;49.15;;
16862;SDS011;52193;48.216;-1.698;2024-02-26T06:25:35;52.83;;;48.53;;
16862;SDS011;52193;48.216;-1.698;2024-02-26T06:28:02;54.75;;;50.45;;
16862;SDS011;52193;48.216;-1.698;2024-02-26T06:30:29;54.58;;;50.08;;
16862;SDS011;52193;48.216;-1.698;2024-02-26T06:32:56;53.13;;;48.78;;
16862;SDS011;52193;48.216;-1.698;2024-02-26T06:35:23;54.03;;;49.63;;
16862;SDS011;52193;48.216;-1.698;2024-02-26T06:37:50;55.53;;;50.85;;
16862;SDS011;52193;48.216;-1.698;2024-02-26T06:40:19;56.83;;;52.35;;
16862;SDS011;52193;48.216;-1.698;2024-02-26T06:42:46;56.17;;;51.53;;
16862;SDS011;52193;48.216;-1.698;2024-02-26T06:45:13;55.50;;;51.08;;
16862;SDS011;52193;48.216;-1.698;2024-02-26T06:47:40;55.25;;;50.70;;
16862;SDS011;52193;48.216;-1.698;2024-02-26T06:50:08;54.33;;;49.95;;
16862;SDS011;52193;48.216;-1.698;2024-02-26T06:52:35;53.88;;;49.33;;
16862;SDS011;52193;48.216;-1.698;2024-02-26T06:55:02;53.60;;;49.20;;
16862;SDS011;52193;48.216;-1.698;2024-02-26T06:57:31;53.33;;;49.00;;
16862;SDS011;52193;48.216;-1.698;2024-02-26T06:59:58;54.42;;;50.03;;
16862;SDS011;52193;48.216;-1.698;2024-02-26T07:02:25;54.47;;;49.88;;
16862;SDS011;52193;48.216;-1.698;2024-02-26T07:04:52;54.00;;;49.60;;
16862;SDS011;52193;48.216;-1.698;2024-02-26T07:07:19;54.85;;;50.35;;
16862;SDS011;52193;48.216;-1.698;2024-02-26T07:09:47;54.45;;;49.97;;
16862;SDS011;52193;48.216;-1.698;2024-02-26T07:12:14;53.58;;;49.22;;
16862;SDS011;52193;48.216;-1.698;2024-02-26T07:14:43;52.85;;;48.45;;
16862;SDS011;52193;48.216;-1.698;2024-02-26T07:17:10;52.10;;;47.80;;
16862;SDS011;52193;48.216;-1.698;2024-02-26T07:19:37;51.72;;;47.47;;
16862;SDS011;52193;48.216;-1.698;2024-02-26T07:22:04;50.88;;;46.47;;
16862;SDS011;52193;48.216;-1.698;2024-02-26T07:24:31;50.33;;;45.92;;
16862;SDS011;52193;48.216;-1.698;2024-02-26T07:26:58;49.65;;;45.38;;
16862;SDS011;52193;48.216;-1.698;2024-02-26T07:29:25;49.53;;;45.53;;
16862;SDS011;52193;48.216;-1.698;2024-02-26T07:31:53;49.95;;;45.95;;
16862;SDS011;52193;48.216;-1.698;2024-02-26T07:34:20;49.00;;;45.15;;
16862;SDS011;52193;48.216;-1.698;2024-02-26T07:36:52;48.90;;;45.20;;
16862;SDS011;52193;48.216;-1.698;2024-02-26T07:39:19;49.97;;;46.17;;
16862;SDS011;52193;48.216;-1.698;2024-02-26T07:41:46;49.38;;;45.67;;
16862;SDS011;52193;48.216;-1.698;2024-02-26T07:44:16;49.08;;;45.38;;
16862;SDS011;52193;48.216;-1.698;2024-02-26T07:46:43;49.60;;;45.90;;
16862;SDS011;52193;48.216;-1.698;2024-02-26T07:49:12;48.85;;;45.15;;
16862;SDS011;52193;48.216;-1.698;2024-02-26T07:51:39;49.25;;;45.55;;
16862;SDS011;52193;48.216;-1.698;2024-02-26T07:54:06;49.78;;;46.08;;
16862;SDS011;52193;48.216;-1.698;2024-02-26T07:56:32;48.13;;;44.55;;
16862;SDS011;52193;48.216;-1.698;2024-02-26T07:58:59;49.72;;;46.03;;
16862;SDS011;52193;48.216;-1.698;2024-02-26T08:01:26;49.88;;;46.08;;
16862;SDS011;52193;48.216;-1.698;2024-02-26T08:03:53;49.40;;;45.70;;
16862;SDS011;52193;48.216;-1.698;2024-02-26T08:06:22;48.00;;;44.30;;
16862;SDS011;52193;48.216;-1.698;2024-02-26T08:08:49;48.00;;;44.38;;
16862;SDS011;52193;48.216;-1.698;2024-02-26T08:11:18;47.30;;;43.70;;
16862;SDS011;52193;48.216;-1.698;2024-02-26T08:13:45;47.72;;;44.22;;
16862;SDS011;52193;48.216;-1.698;2024-02-26T08:16:11;49.88;;;46.00;;
16862;SDS011;52193;48.216;-1.698;2024-02-26T08:18:38;48.20;;;44.72;;
16862;SDS011;52193;48.216;-1.698;2024-02-26T08:21:05;48.65;;;44.95;;
16862;SDS011;52193;48.216;-1.698;2024-02-26T08:23:35;48.97;;;45.35;;
16862;SDS011;52193;48.216;-1.698;2024-02-26T08:26:02;48.80;;;45.00;;
16862;SDS011;52193;48.216;-1.698;2024-02-26T08:28:32;48.97;;;45.28;;
16862;SDS011;52193;48.216;-1.698;2024-02-26T08:30:59;49.90;;;46.10;;
16862;SDS011;52193;48.216;-1.698;2024-02-26T08:33:26;48.55;;;44.95;;
16862;SDS011;52193;48.216;-1.698;2024-02-26T08:35:52;49.10;;;45.40;;
16862;SDS011;52193;48.216;-1.698;2024-02-26T08:38:20;49.30;;;45.58;;
16862;SDS011;52193;48.216;-1.698;2024-02-26T08:40:48;49.08;;;44.97;;
16862;SDS011;52193;48.216;-1.698;2024-02-26T08:43:15;48.83;;;45.03;;
16862;SDS011;52193;48.216;-1.698;2024-02-26T08:45:42;46.97;;;43.60;;
16862;SDS011;52193;48.216;-1.698;2024-02-26T08:48:09;48.13;;;44.53;;
16862;SDS011;52193;48.216;-1.698;2024-02-26T08:50:36;48.25;;;44.75;;
16862;SDS011;52193;48.216;-1.698;2024-02-26T08:53:03;47.00;;;43.63;;
16862;SDS011;52193;48.216;-1.698;2024-02-26T08:55:30;47.63;;;43.92;;
16862;SDS011;52193;48.216;-1.698;2024-02-26T08:57:59;47.13;;;43.80;;
16862;SDS011;52193;48.216;-1.698;2024-02-26T09:00:25;46.72;;;43.42;;
16862;SDS011;52193;48.216;-1.698;2024-02-26T09:02:52;48.55;;;45.35;;
16862;SDS011;52193;48.216;-1.698;2024-02-26T09:05:19;48.45;;;45.15;;
16862;SDS011;52193;48.216;-1.698;2024-02-26T09:07:46;48.10;;;44.75;;
16862;SDS011;52193;48.216;-1.698;2024-02-26T09:10:13;48.28;;;45.13;;
16862;SDS011;52193;48.216;-1.698;2024-02-26T09:12:40;48.47;;;45.38;;
16862;SDS011;52193;48.216;-1.698;2024-02-26T09:15:09;48.90;;;45.90;;
16862;SDS011;52193;48.216;-1.698;2024-02-26T09:17:36;48.53;;;45.33;;
16862;SDS011;52193;48.216;-1.698;2024-02-26T09:20:04;48.28;;;45.25;;
16862;SDS011;52193;48.216;-1.698;2024-02-26T09:22:34;48.30;;;45.10;;
16862;SDS011;52193;48.216;-1.698;2024-02-26T09:25:03;48.10;;;45.10;;
16862;SDS011;52193;48.216;-1.698;2024-02-26T09:27:30;48.60;;;45.50;;
16862;SDS011;52193;48.216;-1.698;2024-02-26T09:29:58;47.03;;;44.13;;
16862;SDS011;52193;48.216;-1.698;2024-02-26T09:32:26;47.80;;;44.90;;
16862;SDS011;52193;48.216;-1.698;2024-02-26T09:34:53;45.20;;;42.60;;
16862;SDS011;52193;48.216;-1.698;2024-02-26T09:37:20;46.05;;;43.35;;
16862;SDS011;52193;48.216;-1.698;2024-02-26T09:39:46;47.05;;;44.28;;
16862;SDS011;52193;48.216;-1.698;2024-02-26T09:42:13;45.13;;;42.55;;
16862;SDS011;52193;48.216;-1.698;2024-02-26T09:44:41;45.15;;;42.55;;
16862;SDS011;52193;48.216;-1.698;2024-02-26T09:47:10;43.63;;;41.13;;
16862;SDS011;52193;48.216;-1.698;2024-02-26T09:49:39;44.63;;;42.13;;
16862;SDS011;52193;48.216;-1.698;2024-02-26T09:52:07;44.60;;;42.03;;
16862;SDS011;52193;48.216;-1.698;2024-02-26T09:54:35;45.35;;;42.75;;
16862;SDS011;52193;48.216;-1.698;2024-02-26T09:57:02;44.80;;;42.28;;
16862;SDS011;52193;48.216;-1.698;2024-02-26T09:59:34;43.35;;;40.95;;
16862;SDS011;52193;48.216;-1.698;2024-02-26T10:02:05;44.25;;;41.85;;
16862;SDS011;52193;48.216;-1.698;2024-02-26T10:04:35;42.92;;;40.63;;
16862;SDS011;52193;48.216;-1.698;2024-02-26T10:07:04;42.22;;;39.92;;
16862;SDS011;52193;48.216;-1.698;2024-02-26T10:09:35;42.75;;;40.30;;
16862;SDS011;52193;48.216;-1.698;2024-02-26T10:12:03;41.85;;;39.55;;
16862;SDS011;52193;48.216;-1.698;2024-02-26T10:14:30;42.17;;;39.97;;
16862;SDS011;52193;48.216;-1.698;2024-02-26T10:16:57;41.35;;;39.05;;
16862;SDS011;52193;48.216;-1.698;2024-02-26T10:19:26;41.25;;;38.90;;
16862;SDS011;52193;48.216;-1.698;2024-02-26T10:21:56;40.85;;;38.65;;
16862;SDS011;52193;48.216;-1.698;2024-02-26T10:24:25;40.80;;;38.60;;
16862;SDS011;52193;48.216;-1.698;2024-02-26T10:26:52;39.55;;;37.45;;
16862;SDS011;52193;48.216;-1.698;2024-02-26T10:29:20;39.58;;;37.33;;
16862;SDS011;52193;48.216;-1.698;2024-02-26T10:31:47;39.05;;;36.95;;
16862;SDS011;52193;48.216;-1.698;2024-02-26T10:34:14;39.55;;;37.45;;
16862;SDS011;52193;48.216;-1.698;2024-02-26T10:36:42;38.55;;;36.55;;
16862;SDS011;52193;48.216;-1.698;2024-02-26T10:39:09;40.22;;;38.10;;
16862;SDS011;52193;48.216;-1.698;2024-02-26T10:41:39;40.17;;;37.97;;
16862;SDS011;52193;48.216;-1.698;2024-02-26T10:44:08;39.58;;;37.47;;
16862;SDS011;52193;48.216;-1.698;2024-02-26T10:46:37;40.45;;;38.28;;
16862;SDS011;52193;48.216;-1.698;2024-02-26T10:49:04;39.85;;;37.72;;
16862;SDS011;52193;48.216;-1.698;2024-02-26T10:51:33;40.35;;;38.28;;
16862;SDS011;52193;48.216;-1.698;2024-02-26T10:54:04;39.05;;;37.05;;
16862;SDS011;52193;48.216;-1.698;2024-02-26T10:56:33;37.63;;;35.72;;
16862;SDS011;52193;48.216;-1.698;2024-02-26T10:59:04;37.58;;;35.78;;
16862;SDS011;52193;48.216;-1.698;2024-02-26T11:01:35;34.45;;;32.85;;
16862;SDS011;52193;48.216;-1.698;2024-02-26T11:04:03;34.97;;;33.15;;
16862;SDS011;52193;48.216;-1.698;2024-02-26T11:06:31;34.20;;;32.53;;
16862;SDS011;52193;48.216;-1.698;2024-02-26T11:09:00;36.00;;;34.05;;
16862;SDS011;52193;48.216;-1.698;2024-02-26T11:11:29;37.15;;;35.25;;
16862;SDS011;52193;48.216;-1.698;2024-02-26T11:13:59;39.00;;;36.90;;
16862;SDS011;52193;48.216;-1.698;2024-02-26T11:16:30;40.20;;;38.03;;
16862;SDS011;52193;48.216;-1.698;2024-02-26T11:18:59;40.85;;;38.65;;
16862;SDS011;52193;48.216;-1.698;2024-02-26T11:21:28;41.63;;;39.42;;
16862;SDS011;52193;48.216;-1.698;2024-02-26T11:24:03;43.40;;;41.10;;
16862;SDS011;52193;48.216;-1.698;2024-02-26T11:26:32;43.45;;;41.05;;
16862;SDS011;52193;48.216;-1.698;2024-02-26T11:29:00;40.50;;;38.25;;
16862;SDS011;52193;48.216;-1.698;2024-02-26T11:31:28;39.35;;;37.35;;
16862;SDS011;52193;48.216;-1.698;2024-02-26T11:33:58;41.65;;;39.10;;
16862;SDS011;52193;48.216;-1.698;2024-02-26T11:36:25;40.97;;;38.78;;
16862;SDS011;52193;48.216;-1.698;2024-02-26T11:38:52;41.22;;;38.95;;
16862;SDS011;52193;48.216;-1.698;2024-02-26T11:41:19;39.60;;;37.50;;
16862;SDS011;52193;48.216;-1.698;2024-02-26T11:43:49;39.20;;;37.10;;
16862;SDS011;52193;48.216;-1.698;2024-02-26T11:46:27;35.70;;;33.60;;
16862;SDS011;52193;48.216;-1.698;2024-02-26T11:49:00;34.67;;;32.97;;
16862;SDS011;52193;48.216;-1.698;2024-02-26T11:51:28;36.72;;;34.83;;
16862;SDS011;52193;48.216;-1.698;2024-02-26T11:53:59;38.72;;;36.70;;
16862;SDS011;52193;48.216;-1.698;2024-02-26T11:56:26;39.78;;;37.65;;
16862;SDS011;52193;48.216;-1.698;2024-02-26T11:58:58;39.53;;;37.20;;
16862;SDS011;52193;48.216;-1.698;2024-02-26T12:01:35;38.92;;;36.83;;
16862;SDS011;52193;48.216;-1.698;2024-02-26T12:04:18;38.20;;;36.17;;
16862;SDS011;52193;48.216;-1.698;2024-02-26T12:06:46;37.45;;;35.45;;
16862;SDS011;52193;48.216;-1.698;2024-02-26T12:09:34;39.92;;;37.72;;
16862;SDS011;52193;48.216;-1.698;2024-02-26T12:12:03;40.60;;;38.33;;
16862;SDS011;52193;48.216;-1.698;2024-02-26T12:14:32;40.65;;;38.20;;
16862;SDS011;52193;48.216;-1.698;2024-02-26T12:17:00;40.83;;;38.35;;
16862;SDS011;52193;48.216;-1.698;2024-02-26T12:19:29;39.80;;;37.55;;
16862;SDS011;52193;48.216;-1.698;2024-02-26T12:21:57;41.30;;;38.60;;
16862;SDS011;52193;48.216;-1.698;2024-02-26T12:24:24;39.83;;;37.53;;
16862;SDS011;52193;48.216;-1.698;2024-02-26T12:26:51;41.90;;;39.50;;
16862;SDS011;52193;48.216;-1.698;2024-02-26T12:29:18;41.63;;;39.13;;
16862;SDS011;52193;48.216;-1.698;2024-02-26T12:31:46;41.22;;;38.88;;
16862;SDS011;52193;48.216;-1.698;2024-02-26T12:34:14;39.10;;;36.80;;
16862;SDS011;52193;48.216;-1.698;2024-02-26T12:36:43;39.00;;;36.80;;
16862;SDS011;52193;48.216;-1.698;2024-02-26T12:39:09;40.13;;;37.72;;
16862;SDS011;52193;48.216;-1.698;2024-02-26T12:41:37;39.22;;;36.97;;
16862;SDS011;52193;48.216;-1.698;2024-02-26T12:44:05;40.75;;;38.35;;
16862;SDS011;52193;48.216;-1.698;2024-02-26T12:46:33;40.00;;;37.70;;
16862;SDS011;52193;48.216;-1.698;2024-02-26T12:49:00;39.38;;;36.88;;
16862;SDS011;52193;48.216;-1.698;2024-02-26T12:51:27;38.35;;;35.92;;
16862;SDS011;52193;48.216;-1.698;2024-02-26T12:53:56;39.15;;;36.72;;
16862;SDS011;52193;48.216;-1.698;2024-02-26T12:56:23;39.25;;;36.58;;
16862;SDS011;52193;48.216;-1.698;2024-02-26T12:58:52;40.08;;;37.47;;
16862;SDS011;52193;48.216;-1.698;2024-02-26T13:01:21;39.70;;;36.97;;
16862;SDS011;52193;48.216;-1.698;2024-02-26T13:03:49;38.63;;;35.95;;
16862;SDS011;52193;48.216;-1.698;2024-02-26T13:06:18;38.40;;;35.75;;
16862;SDS011;52193;48.216;-1.698;2024-02-26T13:08:46;38.45;;;35.97;;
16862;SDS011;52193;48.216;-1.698;2024-02-26T13:11:15;38.85;;;36.35;;
16862;SDS011;52193;48.216;-1.698;2024-02-26T13:13:42;38.40;;;35.83;;
16862;SDS011;52193;48.216;-1.698;2024-02-26T13:16:15;39.42;;;36.95;;
16862;SDS011;52193;48.216;-1.698;2024-02-26T13:18:42;40.10;;;37.40;;
16862;SDS011;52193;48.216;-1.698;2024-02-26T13:21:10;37.72;;;35.45;;
16862;SDS011;52193;48.216;-1.698;2024-02-26T13:23:38;34.00;;;31.52;;
16862;SDS011;52193;48.216;-1.698;2024-02-26T13:26:05;33.17;;;31.38;;
16862;SDS011;52193;48.216;-1.698;2024-02-26T13:28:34;33.97;;;31.90;;
16862;SDS011;52193;48.216;-1.698;2024-02-26T13:31:01;33.38;;;31.52;;
16862;SDS011;52193;48.216;-1.698;2024-02-26T13:33:30;34.90;;;32.70;;
16862;SDS011;52193;48.216;-1.698;2024-02-26T13:35:58;31.92;;;29.95;;
16862;SDS011;52193;48.216;-1.698;2024-02-26T13:38:25;31.10;;;29.30;;
16862;SDS011;52193;48.216;-1.698;2024-02-26T13:40:52;31.70;;;29.98;;
16862;SDS011;52193;48.216;-1.698;2024-02-26T13:43:20;33.20;;;31.30;;
16862;SDS011;52193;48.216;-1.698;2024-02-26T13:45:48;32.50;;;30.38;;
16862;SDS011;52193;48.216;-1.698;2024-02-26T13:48:15;31.42;;;29.55;;
16862;SDS011;52193;48.216;-1.698;2024-02-26T13:50:42;31.85;;;30.05;;
16862;SDS011;52193;48.216;-1.698;2024-02-26T13:53:10;30.77;;;28.88;;
16862;SDS011;52193;48.216;-1.698;2024-02-26T13:55:37;30.27;;;28.58;;
16862;SDS011;52193;48.216;-1.698;2024-02-26T13:58:07;28.67;;;27.08;;
16862;SDS011;52193;48.216;-1.698;2024-02-26T14:00:34;26.88;;;25.33;;
16862;SDS011;52193;48.216;-1.698;2024-02-26T14:03:03;25.17;;;23.88;;
16862;SDS011;52193;48.216;-1.698;2024-02-26T14:05:30;27.33;;;25.73;;
16862;SDS011;52193;48.216;-1.698;2024-02-26T14:07:57;26.85;;;25.25;;
16862;SDS011;52193;48.216;-1.698;2024-02-26T14:10:24;25.63;;;24.02;;
16862;SDS011;52193;48.216;-1.698;2024-02-26T14:12:51;25.77;;;24.25;;